createdAt,value
2019-04-06T00:02:16.651Z,7.30
2019-04-06T00:04:45.102Z,7.10
2019-04-06T00:07:13.585Z,6.90
2019-04-06T00:09:42.108Z,6.80
2019-04-06T00:12:10.946Z,6.80
2019-04-06T00:14:39.468Z,6.80
2019-04-06T00:17:07.952Z,7.20
2019-04-06T00:19:36.807Z,7.20
2019-04-06T00:22:05.352Z,7.20
2019-04-06T00:24:33.807Z,7.00
2019-04-06T00:27:02.283Z,6.90
2019-04-06T00:29:31.104Z,6.80
2019-04-06T00:32:01.256Z,6.70
2019-04-06T00:34:30.080Z,6.70
2019-04-06T00:36:58.536Z,6.80
2019-04-06T00:39:27.360Z,6.70
2019-04-06T00:41:55.818Z,6.90
2019-04-06T00:44:24.308Z,7.00
2019-04-06T00:46:52.758Z,7.20
2019-04-06T00:49:21.326Z,7.60
2019-04-06T00:51:49.869Z,7.70
2019-04-06T00:54:18.351Z,7.60
2019-04-06T00:56:46.807Z,7.60
2019-04-06T00:59:15.282Z,7.60
2019-04-06T01:01:43.818Z,7.50
2019-04-06T01:04:12.299Z,7.50
2019-04-06T01:06:41.114Z,7.40
2019-04-06T01:09:10.100Z,7.50
2019-04-06T01:11:39.103Z,7.40
2019-04-06T01:14:07.578Z,7.50
2019-04-06T01:16:36.035Z,7.50
2019-04-06T01:19:04.519Z,7.60
2019-04-06T01:21:32.975Z,7.60
2019-04-06T01:24:01.456Z,7.20
2019-04-06T01:26:29.988Z,7.00
2019-04-06T01:28:58.810Z,7.10
2019-04-06T01:31:27.281Z,7.30
2019-04-06T01:33:55.827Z,7.50
2019-04-06T01:36:24.577Z,7.50
2019-04-06T01:38:53.054Z,7.70
2019-04-06T01:41:21.861Z,7.80
2019-04-06T01:43:50.406Z,7.80
2019-04-06T01:46:19.176Z,7.60
2019-04-06T01:48:47.683Z,7.60
2019-04-06T01:51:16.139Z,7.90
2019-04-06T01:53:44.619Z,7.80
2019-04-06T01:56:18.327Z,7.80
2019-04-06T01:58:43.615Z,8.20
2019-04-06T02:01:13.714Z,7.80
2019-04-06T02:03:42.627Z,7.60
2019-04-06T02:06:11.087Z,7.60
2019-04-06T02:08:39.559Z,7.50
2019-04-06T02:11:08.287Z,7.30
2019-04-06T02:13:37.079Z,7.30
2019-04-06T02:16:05.880Z,7.50
2019-04-06T02:18:34.428Z,7.70
2019-04-06T02:21:02.899Z,7.90
2019-04-06T02:23:31.747Z,8.00
2019-04-06T02:26:00.207Z,8.10
2019-04-06T02:28:28.695Z,8.00
2019-04-06T02:31:07.852Z,7.80
2019-04-06T02:33:47.292Z,7.70
2019-04-06T02:36:20.472Z,8.00
2019-04-06T02:38:56.319Z,8.00
2019-04-06T02:41:47.594Z,8.10
2019-04-06T02:44:16.253Z,8.00
2019-04-06T02:46:44.742Z,8.10
2019-04-06T02:49:13.219Z,8.20
2019-04-06T02:51:47.819Z,8.10
2019-04-06T02:54:15.502Z,8.10
2019-04-06T02:56:47.340Z,8.30
2019-04-06T02:59:14.913Z,8.10
2019-04-06T03:01:43.367Z,7.90
2019-04-06T03:04:11.916Z,7.80
2019-04-06T03:06:40.381Z,8.10
2019-04-06T03:09:11.518Z,8.00
2019-04-06T03:11:39.499Z,7.70
2019-04-06T03:14:08.235Z,7.90
2019-04-06T03:16:36.755Z,7.70
2019-04-06T03:19:05.560Z,7.90
2019-04-06T03:21:34.111Z,8.10
2019-04-06T03:24:02.793Z,8.10
2019-04-06T03:26:31.399Z,8.20
2019-04-06T03:28:59.856Z,8.10
2019-04-06T03:31:28.767Z,8.20
2019-04-06T03:33:57.798Z,8.20
2019-04-06T03:36:26.508Z,8.10
2019-04-06T03:38:54.987Z,7.90
2019-04-06T03:41:23.556Z,7.90
2019-04-06T03:43:52.368Z,8.10
2019-04-06T03:46:21.184Z,8.20
2019-04-06T03:48:49.949Z,8.20
2019-04-06T03:51:18.844Z,8.00
2019-04-06T03:53:47.298Z,7.70
2019-04-06T03:56:15.773Z,7.80
2019-04-06T03:58:44.613Z,7.90
2019-04-06T04:01:13.422Z,7.80
2019-04-06T04:03:41.879Z,7.80
2019-04-06T04:06:10.524Z,8.00
2019-04-06T04:08:39.415Z,7.90
2019-04-06T04:11:07.931Z,8.00
2019-04-06T04:13:36.744Z,8.00
2019-04-06T04:16:05.432Z,7.80
2019-04-06T04:18:34.247Z,8.00
2019-04-06T04:21:03.143Z,7.90
2019-04-06T04:23:31.667Z,7.90
2019-04-06T04:26:00.222Z,7.90
2019-04-06T04:28:28.746Z,7.70
2019-04-06T04:30:57.228Z,7.70
2019-04-06T04:33:25.968Z,7.60
2019-04-06T04:35:54.445Z,7.70
2019-04-06T04:38:22.903Z,7.40
2019-04-06T04:40:51.375Z,7.20
2019-04-06T04:43:20.192Z,7.40
2019-04-06T04:45:49.119Z,7.50
2019-04-06T04:48:17.917Z,7.60
2019-04-06T04:50:46.773Z,7.60
2019-04-06T04:53:15.252Z,7.20
2019-04-06T04:55:44.090Z,7.30
2019-04-06T04:58:12.975Z,7.50
2019-04-06T05:00:41.767Z,7.60
2019-04-06T05:03:10.231Z,7.60
2019-04-06T05:05:38.773Z,7.60
2019-04-06T05:08:07.489Z,7.60
2019-04-06T05:10:36.332Z,7.60
2019-04-06T05:13:05.223Z,7.40
2019-04-06T05:15:45.656Z,7.40
2019-04-06T05:18:14.747Z,7.40
2019-04-06T05:20:46.651Z,7.40
2019-04-06T05:23:15.771Z,7.60
2019-04-06T05:25:44.284Z,7.60
2019-04-06T05:28:13.124Z,7.70
2019-04-06T05:30:41.583Z,7.60
2019-04-06T05:33:10.055Z,7.60
2019-04-06T05:35:38.584Z,7.70
2019-04-06T05:38:07.054Z,7.80
2019-04-06T05:40:35.507Z,7.70
2019-04-06T05:43:04.429Z,7.80
2019-04-06T05:45:33.183Z,7.70
2019-04-06T05:48:01.654Z,7.20
2019-04-06T05:50:30.115Z,7.30
2019-04-06T05:52:58.587Z,7.70
2019-04-06T05:55:27.093Z,8.00
2019-04-06T05:58:03.483Z,8.20
2019-04-06T06:00:26.459Z,8.10
2019-04-06T06:03:25.894Z,7.70
2019-04-06T06:05:54.639Z,7.90
2019-04-06T06:08:23.483Z,8.10
2019-04-06T06:10:52.278Z,8.20
2019-04-06T06:13:20.751Z,7.90
2019-04-06T06:15:50.727Z,8.40
2019-04-06T06:18:26.527Z,8.60
2019-04-06T06:20:49.370Z,8.40
2019-04-06T06:23:18.188Z,7.90
2019-04-06T06:25:46.651Z,7.90
2019-04-06T06:28:15.613Z,8.50
2019-04-06T06:30:44.561Z,9.00
2019-04-06T06:33:13.036Z,9.10
2019-04-06T06:35:41.873Z,9.10
2019-04-06T06:38:10.566Z,9.50
2019-04-06T06:40:39.427Z,9.90
2019-04-06T06:43:07.941Z,10.80
2019-04-06T06:45:36.435Z,10.90
2019-04-06T06:48:04.915Z,10.60
2019-04-06T06:50:34.706Z,10.70
2019-04-06T06:53:03.604Z,9.80
2019-04-06T06:55:32.168Z,9.40
2019-04-06T06:58:00.639Z,9.30
2019-04-06T07:00:29.362Z,9.50
2019-04-06T07:02:58.154Z,10.10
2019-04-06T07:05:26.615Z,10.10
2019-04-06T07:07:55.437Z,9.70
2019-04-06T07:10:23.899Z,9.90
2019-04-06T07:12:52.379Z,10.70
2019-04-06T07:15:21.094Z,12.70
2019-04-06T07:17:50.011Z,14.60
2019-04-06T07:20:18.892Z,14.00
2019-04-06T07:22:47.367Z,13.80
2019-04-06T07:25:16.163Z,13.20
2019-04-06T07:27:44.638Z,12.00
2019-04-06T07:30:13.355Z,11.70
2019-04-06T07:32:41.831Z,14.40
2019-04-06T07:35:10.430Z,14.50
2019-04-06T07:37:38.906Z,15.50
2019-04-06T07:40:08.111Z,14.60
2019-04-06T07:42:36.915Z,14.50
2019-04-06T07:45:07.905Z,15.20
2019-04-06T07:47:36.498Z,15.60
2019-04-06T07:50:07.375Z,16.80
2019-04-06T07:52:36.354Z,16.80
2019-04-06T07:55:09.785Z,16.90
2019-04-06T07:57:38.736Z,17.00
2019-04-06T08:00:07.740Z,16.00
2019-04-06T08:02:36.551Z,16.60
2019-04-06T08:05:06.607Z,17.00
2019-04-06T08:07:35.088Z,16.70
2019-04-06T08:10:04.572Z,14.60
2019-04-06T08:12:33.305Z,15.50
2019-04-06T08:15:02.209Z,15.30
2019-04-06T08:17:30.721Z,15.40
2019-04-06T08:19:59.533Z,14.30
2019-04-06T08:22:28.331Z,13.60
2019-04-06T08:24:57.084Z,14.70
2019-04-06T08:27:26.020Z,14.50
2019-04-06T08:29:54.625Z,16.00
2019-04-06T08:32:23.296Z,15.50
2019-04-06T08:34:52.399Z,17.50
2019-04-06T08:37:21.291Z,18.70
2019-04-06T08:39:50.108Z,18.40
2019-04-06T08:42:18.632Z,17.10
2019-04-06T08:44:47.363Z,16.20
2019-04-06T08:47:15.843Z,15.50
2019-04-06T08:49:44.298Z,14.90
2019-04-06T08:52:12.759Z,15.10
2019-04-06T08:54:41.602Z,15.40
2019-04-06T08:57:10.358Z,16.50
2019-04-06T08:59:39.109Z,17.00
2019-04-06T09:02:07.622Z,15.80
2019-04-06T09:04:36.385Z,16.00
2019-04-06T09:07:05.009Z,16.60
2019-04-06T09:09:33.559Z,16.60
2019-04-06T09:12:02.019Z,18.60
2019-04-06T09:14:30.556Z,19.50
2019-04-06T09:16:59.234Z,18.20
2019-04-06T09:19:28.207Z,17.00
2019-04-06T09:21:56.774Z,18.30
2019-04-06T09:24:25.418Z,19.40
2019-04-06T09:26:54.283Z,19.70
2019-04-06T09:29:24.615Z,18.70
2019-04-06T09:31:53.915Z,17.70
2019-04-06T09:34:23.125Z,19.70
2019-04-06T09:36:52.116Z,20.40
2019-04-06T09:39:20.851Z,19.00
2019-04-06T09:41:49.307Z,19.00
2019-04-06T09:44:19.533Z,20.00
2019-04-06T09:47:05.222Z,18.70
2019-04-06T09:49:35.590Z,19.90
2019-04-06T09:52:11.539Z,21.60
2019-04-06T09:54:50.367Z,20.50
2019-04-06T09:57:23.123Z,20.70
2019-04-06T09:59:58.583Z,20.20
2019-04-06T10:02:40.523Z,20.20
2019-04-06T10:05:16.787Z,19.40
2019-04-06T10:07:49.607Z,19.70
2019-04-06T10:10:36.477Z,20.00
2019-04-06T10:13:16.826Z,19.00
2019-04-06T10:15:53.295Z,18.50
2019-04-06T10:18:23.826Z,19.60
2019-04-06T10:21:10.844Z,19.80
2019-04-06T10:23:57.617Z,21.00
2019-04-06T10:26:45.915Z,21.30
2019-04-06T10:29:32.087Z,20.90
2019-04-06T10:32:11.418Z,21.20
2019-04-06T10:34:44.802Z,21.40
2019-04-06T10:37:18.098Z,20.00
2019-04-06T10:39:54.571Z,20.30
2019-04-06T10:42:35.150Z,19.50
2019-04-06T10:45:22.848Z,19.50
2019-04-06T10:48:11.293Z,20.10
2019-04-06T10:50:44.044Z,20.40
2019-04-06T10:53:20.029Z,20.50
2019-04-06T10:55:56.085Z,22.50
2019-04-06T10:58:42.564Z,21.80
2019-04-06T11:01:16.404Z,22.70
2019-04-06T11:03:46.519Z,21.50
2019-04-06T11:06:16.636Z,21.00
2019-04-06T11:08:59.067Z,20.70
2019-04-06T11:11:31.939Z,20.00
2019-04-06T11:14:16.651Z,20.00
2019-04-06T11:16:49.499Z,18.50
2019-04-06T11:19:37.682Z,17.90
2019-04-06T11:22:08.115Z,19.90
2019-04-06T11:24:41.535Z,21.20
2019-04-06T11:27:11.959Z,21.60
2019-04-06T11:29:52.838Z,21.50
2019-04-06T11:32:35.452Z,20.80
2019-04-06T11:35:11.240Z,21.70
2019-04-06T11:37:50.516Z,20.60
2019-04-06T11:40:36.604Z,21.20
2019-04-06T11:43:07.043Z,20.90
2019-04-06T11:45:40.538Z,21.60
2019-04-06T11:48:27.249Z,22.80
2019-04-06T11:51:15.534Z,23.50
2019-04-06T11:53:45.635Z,22.50
2019-04-06T11:56:15.755Z,21.10
2019-04-06T11:58:48.910Z,21.60
2019-04-06T12:01:19.655Z,21.80
2019-04-06T12:03:52.646Z,21.90
2019-04-06T12:06:22.796Z,23.00
2019-04-06T12:09:08.201Z,23.00
2019-04-06T12:11:50.535Z,22.80
2019-04-06T12:14:20.678Z,22.30
2019-04-06T12:16:51.124Z,20.30
2019-04-06T12:19:33.307Z,20.00
2019-04-06T12:22:11.306Z,21.90
2019-04-06T12:24:53.501Z,21.80
2019-04-06T12:27:35.637Z,20.90
2019-04-06T12:30:16.563Z,20.40
2019-04-06T12:32:46.812Z,21.40
2019-04-06T12:35:23.385Z,22.60
2019-04-06T12:37:59.371Z,23.40
2019-04-06T12:40:49.490Z,21.60
2019-04-06T12:43:36.363Z,20.20
2019-04-06T12:46:31.863Z,20.60
2019-04-06T12:49:11.155Z,20.30
2019-04-06T12:51:56.603Z,20.70
2019-04-06T12:54:39.011Z,21.50
2019-04-06T12:57:15.503Z,20.70
2019-04-06T12:59:51.547Z,20.70
2019-04-06T13:02:38.439Z,21.70
2019-04-06T13:05:15.011Z,22.20
2019-04-06T13:07:58.648Z,21.30
2019-04-06T13:10:28.993Z,22.30
2019-04-06T13:13:08.163Z,23.50
2019-04-06T13:15:55.164Z,24.40
2019-04-06T13:18:34.951Z,25.10
2019-04-06T13:21:11.332Z,23.90
2019-04-06T13:23:44.123Z,23.20
2019-04-06T13:26:17.261Z,22.10
2019-04-06T13:29:00.403Z,21.90
2019-04-06T13:31:47.186Z,22.40
2019-04-06T13:34:23.358Z,22.40
2019-04-06T13:37:10.283Z,21.70
2019-04-06T13:39:49.547Z,21.10
2019-04-06T13:42:35.980Z,20.00
2019-04-06T13:45:23.764Z,19.30
2019-04-06T13:48:10.642Z,18.90
2019-04-06T13:50:46.491Z,18.50
2019-04-06T13:53:31.899Z,18.30
2019-04-06T13:56:05.134Z,18.50
2019-04-06T13:58:41.151Z,19.30
2019-04-06T14:01:16.024Z,19.80
2019-04-06T14:04:01.403Z,21.10
2019-04-06T14:06:48.091Z,22.50
2019-04-06T14:09:21.319Z,22.20
2019-04-06T14:12:03.487Z,21.10
2019-04-06T14:14:42.643Z,21.60
2019-04-06T14:17:21.642Z,21.90
2019-04-06T14:20:08.379Z,21.80
2019-04-06T14:22:50.778Z,20.70
2019-04-06T14:25:20.883Z,20.00
2019-04-06T14:27:52.483Z,19.30
2019-04-06T14:30:22.641Z,19.10
2019-04-06T14:32:52.964Z,19.00
2019-04-06T14:35:32.334Z,18.90
2019-04-06T14:38:06.364Z,19.00
2019-04-06T14:40:39.447Z,19.50
2019-04-06T14:43:12.843Z,20.10
2019-04-06T14:45:43.357Z,20.80
2019-04-06T14:48:17.779Z,19.70
2019-04-06T14:50:47.884Z,19.40
2019-04-06T14:53:24.079Z,19.20
2019-04-06T14:55:54.542Z,18.90
2019-04-06T14:58:50.066Z,18.70
2019-04-06T15:01:20.448Z,18.80
2019-04-06T15:03:53.566Z,18.70
2019-04-06T15:06:39.069Z,18.50
2019-04-06T15:09:17.474Z,18.60
2019-04-06T15:11:50.484Z,18.80
2019-04-06T15:14:37.422Z,18.70
2019-04-06T15:17:14.900Z,18.70
2019-04-06T15:19:54.363Z,18.70
2019-04-06T15:22:30.585Z,18.80
2019-04-06T15:25:01.089Z,18.70
2019-04-06T15:27:35.244Z,18.60
2019-04-06T15:30:25.727Z,18.60
2019-04-06T15:33:12.262Z,18.70
2019-04-06T15:35:42.362Z,18.60
2019-04-06T15:38:21.614Z,18.70
2019-04-06T15:40:57.283Z,19.00
2019-04-06T15:43:27.415Z,19.20
2019-04-06T15:46:24.862Z,19.40
2019-04-06T15:49:06.975Z,19.60
2019-04-06T15:51:40.408Z,20.20
2019-04-06T15:54:10.670Z,19.50
2019-04-06T15:56:43.431Z,20.20
2019-04-06T15:59:13.623Z,19.90
2019-04-06T16:02:02.365Z,19.60
2019-04-06T16:04:44.067Z,19.90
2019-04-06T16:07:14.170Z,19.90
2019-04-06T16:09:47.025Z,20.20
2019-04-06T16:12:34.538Z,19.90
2019-04-06T16:15:05.280Z,19.30
2019-04-06T16:17:51.666Z,19.00
2019-04-06T16:20:30.913Z,19.10
2019-04-06T16:23:16.543Z,19.00
2019-04-06T16:25:58.687Z,19.10
2019-04-06T16:28:34.738Z,19.00
2019-04-06T16:31:05.287Z,19.10
2019-04-06T16:33:44.218Z,18.70
2019-04-06T16:36:14.808Z,18.50
2019-04-06T16:39:03.553Z,18.30
2019-04-06T16:41:58.679Z,18.20
2019-04-06T16:44:29.089Z,18.10
2019-04-06T16:47:01.925Z,18.20
2019-04-06T16:49:32.263Z,18.20
2019-04-06T16:52:27.166Z,18.10
2019-04-06T16:55:02.371Z,18.00
2019-04-06T16:57:48.798Z,17.80
2019-04-06T17:00:20.802Z,17.70
2019-04-06T17:02:54.262Z,17.60
2019-04-06T17:05:42.760Z,17.40
2019-04-06T17:08:21.979Z,17.10
2019-04-06T17:10:52.142Z,16.90
2019-04-06T17:13:25.844Z,16.60
2019-04-06T17:15:55.991Z,16.30
2019-04-06T17:19:00.657Z,16.20
2019-04-06T17:21:30.839Z,15.90
2019-04-06T17:24:10.231Z,15.80
2019-04-06T17:26:40.411Z,15.50
2019-04-06T17:29:18.303Z,15.10
2019-04-06T17:32:00.899Z,14.80
2019-04-06T17:34:34.187Z,14.40
2019-04-06T17:37:22.719Z,14.20
2019-04-06T17:40:04.891Z,14.00
2019-04-06T17:42:44.368Z,13.80
2019-04-06T17:45:17.332Z,13.50
2019-04-06T17:48:17.439Z,13.30
2019-04-06T17:50:47.635Z,13.50
2019-04-06T17:53:30.654Z,13.80
2019-04-06T17:56:06.967Z,13.80
2019-04-06T17:58:40.047Z,13.90
2019-04-06T18:01:10.147Z,13.70
2019-04-06T18:03:59.669Z,13.70
2019-04-06T18:06:36.795Z,13.60
2019-04-06T18:09:24.744Z,13.60
2019-04-06T18:11:55.173Z,13.70
2019-04-06T18:14:24.242Z,13.40
2019-04-06T18:16:59.735Z,13.40
2019-04-06T18:19:28.215Z,13.40
2019-04-06T18:21:57.298Z,13.10
2019-04-06T18:24:25.984Z,13.00
2019-04-06T18:26:54.502Z,12.40
2019-04-06T18:29:23.292Z,12.40
2019-04-06T18:31:56.684Z,12.20
2019-04-06T18:34:25.491Z,12.00
2019-04-06T18:36:58.995Z,11.70
2019-04-06T18:39:28.183Z,11.60
2019-04-06T18:41:56.972Z,11.30
2019-04-06T18:44:25.657Z,11.20
2019-04-06T18:46:54.183Z,11.00
2019-04-06T18:49:22.948Z,10.90
2019-04-06T18:51:51.739Z,10.80
2019-04-06T18:54:20.352Z,10.70
2019-04-06T18:56:49.222Z,10.40
2019-04-06T18:59:17.678Z,10.40
2019-04-06T19:01:46.163Z,10.30
2019-04-06T19:04:14.619Z,10.10
2019-04-06T19:06:43.467Z,10.10
2019-04-06T19:09:22.168Z,10.00
2019-04-06T19:11:53.722Z,9.90
2019-04-06T19:14:13.024Z,9.80
2019-04-06T19:16:41.495Z,9.50
2019-04-06T19:19:09.943Z,9.50
2019-04-06T19:21:38.755Z,9.60
2019-04-06T19:24:07.318Z,9.50
2019-04-06T19:26:37.389Z,9.40
2019-04-06T19:29:06.071Z,9.40
2019-04-06T19:31:35.437Z,9.30
2019-04-06T19:34:04.814Z,9.20
2019-04-06T19:36:34.009Z,9.10
2019-04-06T19:39:03.117Z,9.00
2019-04-06T19:41:31.743Z,8.90
2019-04-06T19:44:00.471Z,8.90
2019-04-06T19:46:29.422Z,8.80
2019-04-06T19:48:58.543Z,8.70
2019-04-06T19:51:27.490Z,8.70
2019-04-06T19:53:55.983Z,8.60
2019-04-06T19:56:24.927Z,8.50
2019-04-06T19:58:53.434Z,8.40
2019-04-06T20:01:21.903Z,8.40
2019-04-06T20:03:50.365Z,8.30
2019-04-06T20:06:18.842Z,8.30
2019-04-06T20:08:47.592Z,8.20
2019-04-06T20:11:16.536Z,8.20
2019-04-06T20:13:45.617Z,8.10
2019-04-06T20:16:14.180Z,8.00
2019-04-06T20:18:43.309Z,8.00
2019-04-06T20:21:12.293Z,7.90
2019-04-06T20:23:41.319Z,7.80
2019-04-06T20:26:09.919Z,7.80
2019-04-06T20:28:39.021Z,7.70
2019-04-06T20:31:08.167Z,7.60
2019-04-06T20:33:46.764Z,7.40
2019-04-06T20:36:08.066Z,7.40
2019-04-06T20:38:36.891Z,7.40
2019-04-06T20:41:05.364Z,7.50
2019-04-06T20:43:34.231Z,7.20
2019-04-06T20:46:02.727Z,7.30
2019-04-06T20:48:31.182Z,7.20
2019-04-06T20:51:00.038Z,7.20
2019-04-06T20:53:28.831Z,7.10
2019-04-06T20:55:57.684Z,7.10
2019-04-06T20:58:26.175Z,7.10
2019-04-06T21:00:54.631Z,7.00
2019-04-06T21:03:23.387Z,6.80
2019-04-06T21:05:52.283Z,6.80
2019-04-06T21:08:20.825Z,6.80
2019-04-06T21:10:49.561Z,6.70
2019-04-06T21:13:18.050Z,6.70
2019-04-06T21:15:46.581Z,6.60
2019-04-06T21:18:15.419Z,6.60
2019-04-06T21:20:44.070Z,6.60
2019-04-06T21:23:12.926Z,6.50
2019-04-06T21:25:41.836Z,6.50
2019-04-06T21:28:10.356Z,6.40
2019-04-06T21:30:39.043Z,6.40
2019-04-06T21:33:07.947Z,6.20
2019-04-06T21:35:36.879Z,6.30
2019-04-06T21:38:05.605Z,6.20
2019-04-06T21:40:34.173Z,6.00
2019-04-06T21:43:03.131Z,6.10
2019-04-06T21:45:31.672Z,6.00
2019-04-06T21:48:00.482Z,6.00
2019-04-06T21:50:29.331Z,6.10
2019-04-06T21:52:57.871Z,6.10
2019-04-06T21:55:27.171Z,6.00
2019-04-06T21:57:56.117Z,5.90
2019-04-06T22:00:26.283Z,5.90
2019-04-06T22:02:55.031Z,5.70
2019-04-06T22:05:23.926Z,5.70
2019-04-06T22:07:54.590Z,5.70
2019-04-06T22:10:22.945Z,5.50
2019-04-06T22:12:51.444Z,5.60
2019-04-06T22:15:20.259Z,5.60
2019-04-06T22:17:49.122Z,5.60
2019-04-06T22:20:17.656Z,5.40
2019-04-06T22:22:46.195Z,5.50
2019-04-06T22:25:14.980Z,5.40
2019-04-06T22:27:43.879Z,5.50
2019-04-06T22:30:12.477Z,5.30
2019-04-06T22:32:41.434Z,5.10
2019-04-06T22:35:10.328Z,5.20
2019-04-06T22:37:39.556Z,5.20
2019-04-06T22:40:09.568Z,5.10
2019-04-06T22:42:38.345Z,5.10
2019-04-06T22:45:09.309Z,5.00
2019-04-06T22:47:38.147Z,4.90
2019-04-06T22:50:07.983Z,4.90
2019-04-06T22:52:36.832Z,4.90
2019-04-06T22:55:15.449Z,4.80
2019-04-06T22:57:44.043Z,4.80
2019-04-06T23:00:16.846Z,4.70
2019-04-06T23:02:52.463Z,4.60
2019-04-06T23:05:23.559Z,4.50
2019-04-06T23:07:52.019Z,4.60
2019-04-06T23:10:20.490Z,4.60
2019-04-06T23:12:49.017Z,4.60
2019-04-06T23:15:37.159Z,4.50
2019-04-06T23:18:05.858Z,4.50
2019-04-06T23:20:35.185Z,4.60
2019-04-06T23:23:03.783Z,4.40
2019-04-06T23:25:47.403Z,4.30
2019-04-06T23:28:15.949Z,4.30
2019-04-06T23:30:44.521Z,4.20
2019-04-06T23:33:13.075Z,4.20
2019-04-06T23:35:41.609Z,4.10
2019-04-06T23:38:10.357Z,4.20
2019-04-06T23:40:38.828Z,4.10
2019-04-06T23:43:07.631Z,4.10
2019-04-06T23:45:36.627Z,4.10
2019-04-06T23:48:05.232Z,4.10
2019-04-06T23:50:34.590Z,4.00
2019-04-06T23:53:03.416Z,3.90
2019-04-06T23:55:31.923Z,3.90
2019-04-06T23:58:00.696Z,3.90
